Nain, Canada
Current Conditions -  °F | °C
As of 8:00 AM on Friday 31 Oct 2014 (Local Time) from CYDP Reporting Station
Snow Showers Snow Showers  
Wind Chill: 22°   Ceiling: 2200
Heat Index: 34°   Visibility: 15mi
Dew Point: 25°   Wind: 20mph
Humidity: 70%   Direction: 280°W
Pressure: 29.51"   Gusts: 30mph
Location:  56.55°N, 61.68°W
Report Text: CYDP 311100Z 28017G26KT 15SM -SHSN BKN022 01/M04 A2951 RMK SC6SLP995
Loading
Personal Weather Stations






























Interactive Weather Map
Tropical Storm Tracking
New forecast layout! Learn more

10-Day Weather Forecast

Advertisements
Track Severe Weather on mobile